Time;durP1;ratioP1;P1;durP2;ratioP2;P2;SDS_P1;SDS_P2;PMS_P1;PMS_P2;Temp;Humidity;BMP_temperature;BMP_pressure;BME280_temperature;BME280_humidity;BME280_pressure;Samples;Min_cycle;Max_cycle;Signal;HPM_P1;HPM_P2
2022/08/13 00:01:13;;;;;;;4.30;2.97;;;15.70;99.90;;;;;;5116913;28;20195;-75
2022/08/13 00:03:40;;;;;;;8.43;3.27;;;15.60;99.90;;;;;;5116859;28;20199;-74
2022/08/13 00:06:08;;;;;;;3.53;2.93;;;15.70;99.90;;;;;;5117099;28;20207;-75
2022/08/13 00:08:35;;;;;;;3.30;3.00;;;15.50;99.90;;;;;;5116723;28;20676;-75
2022/08/13 00:11:04;;;;;;;3.33;3.03;;;15.60;99.90;;;;;;5116467;28;20551;-75
2022/08/13 00:13:31;;;;;;;4.40;2.90;;;15.60;99.90;;;;;;5116755;28;20200;-74
2022/08/13 00:15:59;;;;;;;4.50;2.77;;;15.50;99.90;;;;;;5116453;28;20249;-75
2022/08/13 00:18:28;;;;;;;3.90;2.80;;;15.40;99.90;;;;;;5116491;28;20563;-75
2022/08/13 00:20:56;;;;;;;5.93;3.17;;;15.30;99.90;;;;;;5116553;28;20222;-74
2022/08/13 00:23:27;;;;;;;3.30;3.00;;;15.30;99.90;;;;;;5116410;28;20696;-74
2022/08/13 00:25:55;;;;;;;3.50;3.00;;;15.40;99.90;;;;;;5116537;28;20252;-75
2022/08/13 00:28:24;;;;;;;3.40;3.10;;;15.20;99.90;;;;;;5116579;28;20192;-75
2022/08/13 00:30:53;;;;;;;4.53;3.07;;;15.20;99.90;;;;;;5116068;28;20203;-74
2022/08/13 00:33:23;;;;;;;3.20;2.90;;;15.20;99.90;;;;;;5116347;28;20196;-74
2022/08/13 00:35:52;;;;;;;3.20;2.90;;;15.20;99.90;;;;;;5116427;28;20211;-74
2022/08/13 00:38:22;;;;;;;5.20;3.40;;;15.10;99.90;;;;;;5116412;28;20568;-74
2022/08/13 00:40:52;;;;;;;4.10;3.23;;;15.10;99.90;;;;;;5115741;28;20228;-74
2022/08/13 00:43:19;;;;;;;5.17;4.10;;;15.00;99.90;;;;;;5115243;28;20225;-74
2022/08/13 00:45:46;;;;;;;6.87;3.87;;;15.10;99.90;;;;;;5115453;28;20290;-75
2022/08/13 00:51:00;;;;;;;5.03;3.60;;;14.90;99.90;;;;;;5115698;28;20245;-74
2022/08/13 00:53:29;;;;;;;4.77;3.13;;;15.00;99.90;;;;;;5115740;28;20198;-74
2022/08/13 00:55:59;;;;;;;7.47;3.90;;;14.80;99.90;;;;;;5114918;28;20326;-74
2022/08/13 00:58:27;;;;;;;5.23;3.60;;;14.90;99.90;;;;;;5114510;28;20192;-74
2022/08/13 01:00:56;;;;;;;4.33;3.77;;;15.00;99.90;;;;;;5114872;28;20555;-74
2022/08/13 01:03:26;;;;;;;5.73;3.50;;;14.80;99.90;;;;;;5114827;28;20192;-74
2022/08/13 01:05:59;;;;;;;7.73;3.33;;;14.80;99.90;;;;;;5114551;28;20196;-74
2022/08/13 01:08:27;;;;;;;4.80;3.77;;;14.80;99.90;;;;;;5114646;28;20206;-74
2022/08/13 01:10:56;;;;;;;6.10;3.77;;;14.80;99.90;;;;;;5114807;28;20199;-74
2022/08/13 01:13:25;;;;;;;6.67;4.87;;;14.80;99.90;;;;;;5114634;28;20199;-74
2022/08/13 01:15:53;;;;;;;9.33;5.87;;;14.70;99.90;;;;;;5114462;28;20252;-74
2022/08/13 01:18:24;;;;;;;16.53;8.03;;;14.70;99.90;;;;;;5114451;28;20204;-74
2022/08/13 01:20:58;;;;;;;10.20;7.27;;;14.70;99.90;;;;;;5114345;28;20256;-74
2022/08/13 01:23:28;;;;;;;11.57;7.13;;;14.70;99.90;;;;;;5114263;28;20619;-74
2022/08/13 01:25:55;;;;;;;10.73;6.30;;;14.70;99.90;;;;;;5114458;28;20204;-74
2022/08/13 01:28:23;;;;;;;9.53;5.40;;;14.70;99.90;;;;;;5114447;28;20253;-74
2022/08/13 01:30:50;;;;;;;9.63;5.17;;;14.60;99.90;;;;;;5114278;28;20223;-74
2022/08/13 01:33:17;;;;;;;6.07;4.70;;;14.60;99.90;;;;;;5114318;28;20282;-75
2022/08/13 01:35:45;;;;;;;5.27;4.23;;;14.60;99.90;;;;;;5114373;28;20234;-74
2022/08/13 01:38:13;;;;;;;8.07;4.20;;;14.40;99.90;;;;;;5114242;28;20223;-74
2022/08/13 01:40:41;;;;;;;5.13;4.30;;;14.40;99.90;;;;;;5078772;28;1014537;-74
2022/08/13 01:43:08;;;;;;;6.87;4.47;;;14.30;99.90;;;;;;5115218;28;20200;-74
2022/08/13 01:45:36;;;;;;;6.47;4.83;;;14.30;99.90;;;;;;5115067;28;20207;-74
2022/08/13 01:50:47;;;;;;;10.30;6.83;;;14.20;99.90;;;;;;5115060;28;20250;-74
2022/08/13 01:53:17;;;;;;;8.90;5.77;;;14.20;99.90;;;;;;5115061;28;20192;-74
2022/08/13 01:55:48;;;;;;;6.40;4.20;;;14.20;99.90;;;;;;5115026;28;20195;-75
2022/08/13 01:58:17;;;;;;;6.30;4.30;;;14.20;99.90;;;;;;5114795;28;20228;-74
2022/08/13 02:00:45;;;;;;;6.67;5.37;;;14.20;99.90;;;;;;5115022;28;20230;-74
2022/08/13 02:03:12;;;;;;;9.50;5.63;;;14.20;99.90;;;;;;5114693;28;20650;-74
2022/08/13 02:05:40;;;;;;;8.47;5.40;;;14.20;99.90;;;;;;5114775;28;20199;-74
2022/08/13 02:08:08;;;;;;;4.43;4.03;;;14.10;99.90;;;;;;5114731;28;20252;-75
2022/08/13 02:10:38;;;;;;;6.37;3.67;;;13.90;99.90;;;;;;5113720;28;20256;-74
2022/08/13 02:13:10;;;;;;;3.83;3.53;;;13.70;99.90;;;;;;5114436;28;20241;-75
2022/08/13 02:15:38;;;;;;;6.30;3.80;;;13.60;99.90;;;;;;5114537;28;20207;-74
2022/08/13 02:18:05;;;;;;;4.10;3.80;;;13.50;99.90;;;;;;5114362;28;20223;-74
2022/08/13 02:20:34;;;;;;;5.13;3.73;;;13.60;99.90;;;;;;5114337;28;20655;-74
2022/08/13 02:23:01;;;;;;;4.33;3.93;;;13.50;99.90;;;;;;5114289;28;20274;-74
2022/08/13 02:25:29;;;;;;;4.30;3.87;;;13.60;99.90;;;;;;5114193;28;20252;-74
2022/08/13 02:27:56;;;;;;;4.17;3.77;;;13.60;99.90;;;;;;5114137;28;20200;-74
2022/08/13 02:30:27;;;;;;;4.40;4.00;;;13.60;99.90;;;;;;5114247;28;20200;-74
2022/08/13 02:32:54;;;;;;;4.33;3.93;;;13.30;99.90;;;;;;5114167;28;20191;-74
2022/08/13 02:35:21;;;;;;;4.50;4.10;;;13.10;99.90;;;;;;5114114;28;20646;-74
2022/08/13 02:37:48;;;;;;;4.83;4.27;;;13.00;99.90;;;;;;5113845;28;20231;-74
2022/08/13 02:43:02;;;;;;;4.93;4.40;;;12.70;99.90;;;;;;5114044;28;20566;-74
2022/08/13 02:45:30;;;;;;;4.60;4.20;;;12.60;99.90;;;;;;5114064;28;20195;-74
2022/08/13 02:47:58;;;;;;;5.07;4.57;;;12.50;99.90;;;;;;5113961;28;20199;-74
2022/08/13 02:50:27;;;;;;;5.67;4.97;;;12.40;99.90;;;;;;5113758;28;20223;-74
2022/08/13 02:52:54;;;;;;;5.10;4.70;;;12.40;99.90;;;;;;5114008;28;20554;-74
2022/08/13 02:55:22;;;;;;;5.53;4.53;;;12.40;99.90;;;;;;5113861;28;20195;-74
2022/08/13 02:57:50;;;;;;;4.50;4.20;;;12.40;99.90;;;;;;5113574;28;20698;-74
2022/08/13 03:00:20;;;;;;;4.80;4.33;;;12.40;99.90;;;;;;5113689;28;20196;-74
2022/08/13 03:02:48;;;;;;;6.33;5.03;;;12.40;99.90;;;;;;5113851;28;20196;-74
2022/08/13 03:05:17;;;;;;;5.17;4.67;;;12.30;99.90;;;;;;5113522;28;20219;-74
2022/08/13 03:07:46;;;;;;;7.27;4.60;;;12.60;99.90;;;;;;5113681;28;20199;-74
2022/08/13 03:10:16;;;;;;;4.63;4.03;;;12.70;99.90;;;;;;5113465;28;20605;-74
2022/08/13 03:12:46;;;;;;;6.53;4.73;;;12.80;99.90;;;;;;5113523;28;20233;-74
2022/08/13 03:15:14;;;;;;;5.10;4.60;;;12.80;99.90;;;;;;5113431;28;20204;-74
2022/08/13 03:17:43;;;;;;;6.77;5.00;;;12.50;99.90;;;;;;5113192;28;20302;-74
2022/08/13 03:20:15;;;;;;;4.97;4.40;;;12.40;99.90;;;;;;5113547;28;20265;-74
2022/08/13 03:22:50;;;;;;;7.97;5.00;;;12.20;99.90;;;;;;5113399;28;20633;-74
2022/08/13 03:25:17;;;;;;;7.80;4.63;;;12.10;99.90;;;;;;5113444;28;20264;-74
2022/08/13 03:27:44;;;;;;;6.83;4.70;;;12.00;99.90;;;;;;5113232;28;20195;-74
2022/08/13 03:30:12;;;;;;;5.50;5.00;;;11.80;99.90;;;;;;5113161;28;20202;-74
2022/08/13 03:32:40;;;;;;;5.53;4.83;;;11.80;99.90;;;;;;5113427;28;20204;-74
2022/08/13 03:35:14;;;;;;;7.00;5.47;;;11.90;99.90;;;;;;5113123;28;20658;-74
2022/08/13 03:37:44;;;;;;;5.57;5.07;;;11.90;99.90;;;;;;5113171;28;20220;-74
2022/08/13 03:40:12;;;;;;;8.00;5.07;;;11.80;99.90;;;;;;5113298;28;20269;-74
2022/08/13 03:42:39;;;;;;;5.47;4.97;;;12.00;99.90;;;;;;5113048;28;20264;-74
2022/08/13 03:45:08;;;;;;;5.83;5.00;;;12.10;99.90;;;;;;5113106;28;20196;-75
2022/08/13 03:47:34;;;;;;;5.10;4.70;;;12.20;99.90;;;;;;5113214;28;20199;-73
2022/08/13 03:50:03;;;;;;;5.73;4.97;;;12.30;99.90;;;;;;5113303;28;20224;-75
2022/08/13 03:52:33;;;;;;;6.47;5.30;;;12.40;99.90;;;;;;5113224;28;20207;-74
2022/08/13 03:55:00;;;;;;;5.33;4.83;;;12.40;99.90;;;;;;5113061;28;20241;-77
2022/08/13 03:57:27;;;;;;;5.53;5.03;;;12.30;99.90;;;;;;5113273;28;20612;-75
2022/08/13 03:59:55;;;;;;;5.37;4.70;;;12.30;99.90;;;;;;5113155;28;20191;-74
2022/08/13 04:02:22;;;;;;;5.30;4.80;;;12.10;99.90;;;;;;5112993;28;20199;-74
2022/08/13 04:04:50;;;;;;;6.53;5.13;;;12.00;99.90;;;;;;5112946;28;20223;-74
2022/08/13 04:07:18;;;;;;;7.33;5.10;;;11.90;99.90;;;;;;5112745;28;20200;-74
2022/08/13 04:09:46;;;;;;;5.67;5.17;;;11.90;99.90;;;;;;5112811;28;20200;-75
2022/08/13 04:12:14;;;;;;;7.17;5.80;;;12.00;99.90;;;;;;5113163;28;20204;-76
2022/08/13 04:14:41;;;;;;;7.90;5.47;;;11.90;99.90;;;;;;5112997;28;20245;-74
2022/08/13 04:17:10;;;;;;;5.73;5.17;;;11.70;99.90;;;;;;5112800;28;20215;-75
2022/08/13 04:19:37;;;;;;;5.83;5.33;;;11.70;99.90;;;;;;5113046;28;20222;-75
2022/08/13 04:22:05;;;;;;;8.10;5.23;;;11.60;99.90;;;;;;5112763;28;20203;-73
2022/08/13 04:24:33;;;;;;;6.27;5.27;;;11.60;99.90;;;;;;5112965;28;20233;-74
2022/08/13 04:27:02;;;;;;;5.90;5.37;;;11.60;99.90;;;;;;5112715;28;20203;-74
2022/08/13 04:29:29;;;;;;;5.93;5.30;;;11.60;99.90;;;;;;5112680;28;20528;-74
2022/08/13 04:31:55;;;;;;;5.73;5.20;;;11.70;99.90;;;;;;5112751;28;20200;-74
2022/08/13 04:34:25;;;;;;;7.53;5.93;;;11.70;99.90;;;;;;5115403;28;20547;-75
2022/08/13 04:36:52;;;;;;;5.97;5.40;;;11.70;99.90;;;;;;5116311;28;20237;-74
2022/08/13 04:39:19;;;;;;;6.87;6.17;;;11.70;99.90;;;;;;5116379;28;20608;-74
2022/08/13 04:41:46;;;;;;;5.97;5.47;;;11.70;99.90;;;;;;5116164;28;20223;-74
2022/08/13 04:44:14;;;;;;;6.20;5.60;;;11.80;99.90;;;;;;5116370;28;20199;-74
2022/08/13 04:46:40;;;;;;;7.50;5.37;;;11.90;99.90;;;;;;5116321;28;20245;-74
2022/08/13 04:49:07;;;;;;;6.10;5.60;;;11.80;99.90;;;;;;5116054;28;20674;-74
2022/08/13 04:51:34;;;;;;;8.70;5.77;;;11.90;99.90;;;;;;5116444;28;20252;-74
2022/08/13 04:54:01;;;;;;;6.77;5.60;;;12.00;99.90;;;;;;5116053;28;20659;-74
2022/08/13 04:56:28;;;;;;;6.73;5.90;;;12.20;99.90;;;;;;5116491;28;20203;-75
2022/08/13 04:58:55;;;;;;;8.10;5.20;;;12.40;99.90;;;;;;5116297;28;20223;-74
2022/08/13 05:01:24;;;;;;;8.83;5.73;;;12.60;99.90;;;;;;5116047;28;20200;-74
2022/08/13 05:03:51;;;;;;;5.70;5.20;;;12.80;99.90;;;;;;5115848;28;20195;-75
2022/08/13 05:06:19;;;;;;;5.83;5.33;;;13.00;99.90;;;;;;5115996;28;20198;-75
2022/08/13 05:08:45;;;;;;;5.90;5.30;;;13.10;99.90;;;;;;5116121;28;20202;-76
2022/08/13 05:11:13;;;;;;;6.60;6.00;;;13.20;99.90;;;;;;5115904;28;20226;-74
2022/08/13 05:13:40;;;;;;;5.63;5.13;;;13.30;99.90;;;;;;5115879;28;20192;-74
2022/08/13 05:16:08;;;;;;;6.70;6.10;;;13.40;99.90;;;;;;5115797;28;20195;-74
2022/08/13 05:18:42;;;;;;;5.87;5.13;;;13.40;99.90;;;;;;5115625;28;20277;-75
2022/08/13 05:21:09;;;;;;;5.80;5.30;;;13.50;99.90;;;;;;5115857;28;20223;-74
2022/08/13 05:23:37;;;;;;;6.20;5.27;;;13.70;99.90;;;;;;5115658;28;20241;-74
2022/08/13 05:26:04;;;;;;;6.10;5.60;;;13.80;99.90;;;;;;5115709;28;20244;-74
2022/08/13 05:28:32;;;;;;;5.50;5.00;;;13.90;99.90;;;;;;5115576;28;20196;-75
2022/08/13 05:31:00;;;;;;;5.93;5.17;;;14.00;99.90;;;;;;5115357;28;20195;-75
2022/08/13 05:33:29;;;;;;;5.80;5.30;;;14.10;99.90;;;;;;5115506;28;20348;-75
2022/08/13 05:35:59;;;;;;;5.63;5.13;;;14.00;99.90;;;;;;5115235;28;20601;-75
2022/08/13 05:38:28;;;;;;;5.70;5.20;;;14.00;99.90;;;;;;5115225;28;20268;-74
2022/08/13 05:40:57;;;;;;;6.27;5.70;;;14.10;99.90;;;;;;5115145;28;20714;-74
2022/08/13 05:43:26;;;;;;;5.57;4.77;;;14.20;99.90;;;;;;5115124;28;20225;-74
2022/08/13 05:45:57;;;;;;;6.03;5.23;;;14.40;99.90;;;;;;5114114;28;20219;-74
2022/08/13 05:48:24;;;;;;;5.43;5.03;;;14.60;99.90;;;;;;5115247;28;20207;-74
2022/08/13 05:50:51;;;;;;;5.40;4.90;;;14.80;99.90;;;;;;5115120;28;20195;-75
2022/08/13 05:53:19;;;;;;;5.27;4.77;;;15.00;99.90;;;;;;5115033;28;20195;-74
2022/08/13 05:55:47;;;;;;;5.17;4.67;;;15.10;99.90;;;;;;5114806;28;20203;-74
2022/08/13 05:58:14;;;;;;;5.23;4.57;;;15.30;99.90;;;;;;5115041;28;20231;-74
2022/08/13 06:03:27;;;;;;;6.27;4.73;;;15.70;99.90;;;;;;5115072;28;20199;-74
2022/08/13 06:05:55;;;;;;;4.97;4.50;;;15.80;99.90;;;;;;5114713;28;20196;-75
2022/08/13 06:08:28;;;;;;;5.13;4.63;;;16.00;99.90;;;;;;5114514;28;20200;-75
2022/08/13 06:10:55;;;;;;;4.60;4.20;;;16.10;99.90;;;;;;5114875;28;20207;-75
2022/08/13 06:13:22;;;;;;;5.27;4.70;;;16.20;99.90;;;;;;5114714;28;20195;-74
2022/08/13 06:15:57;;;;;;;5.57;4.87;;;16.30;99.90;;;;;;5114727;28;20202;-74
2022/08/13 06:18:25;;;;;;;4.60;4.20;;;16.40;99.90;;;;;;5114548;28;20223;-74
2022/08/13 06:20:54;;;;;;;5.27;4.40;;;16.50;99.90;;;;;;5114483;28;20534;-74
2022/08/13 06:23:24;;;;;;;7.53;4.90;;;16.50;99.90;;;;;;5114656;28;20199;-74
2022/08/13 06:25:52;;;;;;;4.60;4.20;;;16.60;99.90;;;;;;5114550;28;20196;-74
2022/08/13 06:28:21;;;;;;;5.45;4.10;;;16.70;99.90;;;;;;5114471;28;20211;-74
2022/08/13 06:30:49;;;;;;;4.95;4.50;;;16.80;99.90;;;;;;5114511;28;20200;-74
2022/08/13 06:33:20;;;;;;;6.47;4.00;;;16.90;99.90;;;;;;5114248;28;20200;-74
2022/08/13 06:35:48;;;;;;;5.03;3.85;;;17.10;99.90;;;;;;5114444;28;20670;-74
2022/08/13 06:38:15;;;;;;;4.57;4.18;;;17.30;99.90;;;;;;5114256;28;20764;-74
2022/08/13 06:40:45;;;;;;;4.13;3.83;;;17.50;99.90;;;;;;5114079;28;20235;-74
2022/08/13 06:43:14;;;;;;;4.47;4.07;;;17.70;99.90;;;;;;5113995;28;20229;-74
2022/08/13 06:45:41;;;;;;;4.55;3.80;;;17.90;99.90;;;;;;5113993;28;20200;-74
2022/08/13 06:48:09;;;;;;;4.82;4.32;;;18.20;99.90;;;;;;5114105;28;20254;-74
2022/08/13 06:50:37;;;;;;;6.22;3.50;;;18.50;99.90;;;;;;5114098;28;20271;-74
2022/08/13 06:53:05;;;;;;;3.80;3.50;;;18.70;99.90;;;;;;5113918;28;20544;-74
2022/08/13 06:55:36;;;;;;;3.90;3.50;;;18.90;99.90;;;;;;5113681;28;20204;-74
2022/08/13 06:58:06;;;;;;;3.67;3.38;;;19.00;99.90;;;;;;5113708;28;20259;-74
2022/08/13 07:00:34;;;;;;;3.65;3.33;;;19.00;99.90;;;;;;5113756;28;20199;-74
2022/08/13 07:03:02;;;;;;;3.42;3.13;;;19.10;99.90;;;;;;5113734;28;20256;-74
2022/08/13 07:05:33;;;;;;;7.05;3.78;;;19.20;99.90;;;;;;5113875;28;20196;-75
2022/08/13 07:08:02;;;;;;;5.22;3.60;;;19.30;99.90;;;;;;5113526;28;20536;-75
2022/08/13 07:10:29;;;;;;;4.18;3.28;;;19.50;99.90;;;;;;5113458;28;20287;-75
2022/08/13 07:12:57;;;;;;;3.70;3.40;;;19.60;99.90;;;;;;5113399;28;20200;-74
2022/08/13 07:15:25;;;;;;;3.58;3.28;;;19.70;99.90;;;;;;5113364;28;20282;-76
2022/08/13 07:17:51;;;;;;;4.13;3.20;;;19.90;99.90;;;;;;5113409;28;20199;-75
2022/08/13 07:20:18;;;;;;;5.32;3.58;;;20.10;99.90;;;;;;5113388;28;20655;-74
2022/08/13 07:22:45;;;;;;;3.88;3.58;;;20.50;99.90;;;;;;5113427;28;20248;-75
2022/08/13 07:25:13;;;;;;;4.30;3.47;;;20.80;99.90;;;;;;5113263;28;20554;-74
2022/08/13 07:27:41;;;;;;;3.53;3.22;;;20.80;99.90;;;;;;5113236;28;20191;-75
2022/08/13 07:30:11;;;;;;;3.38;3.13;;;21.00;99.90;;;;;;5113448;28;20191;-75
2022/08/13 07:32:39;;;;;;;3.38;3.17;;;21.30;99.90;;;;;;5113205;28;20199;-74
2022/08/13 07:35:08;;;;;;;3.60;3.30;;;21.60;99.90;;;;;;5113353;28;20195;-74
2022/08/13 07:37:35;;;;;;;4.40;3.58;;;21.80;99.90;;;;;;5113131;28;20195;-75
2022/08/13 07:40:02;;;;;;;3.67;2.83;;;22.00;99.90;;;;;;5112791;28;20321;-75
2022/08/13 07:42:32;;;;;;;3.58;3.03;;;22.10;98.90;;;;;;5113331;28;20252;-75
2022/08/13 07:44:59;;;;;;;6.25;3.92;;;22.20;98.50;;;;;;5113018;28;20203;-76
2022/08/13 07:47:26;;;;;;;3.20;3.00;;;22.40;97.70;;;;;;5113159;28;20199;-76
2022/08/13 07:49:55;;;;;;;5.45;3.30;;;22.60;97.20;;;;;;5113107;28;20252;-76
2022/08/13 07:52:21;;;;;;;5.20;3.50;;;22.60;95.70;;;;;;5112872;28;20196;-75
2022/08/13 07:54:48;;;;;;;4.07;3.28;;;22.80;95.40;;;;;;5113026;28;20643;-76
2022/08/13 07:57:17;;;;;;;3.38;3.17;;;23.00;94.80;;;;;;5113110;28;20200;-76
2022/08/13 07:59:44;;;;;;;3.38;3.08;;;23.10;94.20;;;;;;5112982;28;20536;-76
2022/08/13 08:02:12;;;;;;;4.13;3.70;;;23.30;94.30;;;;;;5112930;28;20710;-75
2022/08/13 08:04:41;;;;;;;4.25;3.55;;;23.50;93.00;;;;;;5112957;28;20291;-76
2022/08/13 08:07:11;;;;;;;3.55;3.20;;;23.70;92.20;;;;;;5112824;28;20199;-76
2022/08/13 08:09:37;;;;;;;3.85;3.15;;;23.70;91.90;;;;;;5116459;28;20285;-76
2022/08/13 08:14:50;;;;;;;3.70;3.40;;;24.20;90.60;;;;;;5117313;28;20206;-76
2022/08/13 08:17:18;;;;;;;3.25;3.05;;;24.30;88.40;;;;;;5116795;28;20202;-76
2022/08/13 08:19:47;;;;;;;4.05;3.63;;;24.40;87.20;;;;;;5116676;28;20771;-76
2022/08/13 08:22:17;;;;;;;4.60;3.50;;;24.30;84.20;;;;;;5116927;28;20199;-75
2022/08/13 08:24:48;;;;;;;3.88;3.45;;;24.20;85.90;;;;;;5116641;28;20589;-75
2022/08/13 08:27:16;;;;;;;4.07;3.28;;;24.60;85.30;;;;;;5116792;28;20225;-76
2022/08/13 08:29:44;;;;;;;3.45;3.20;;;24.90;82.50;;;;;;5116615;28;20200;-76
2022/08/13 08:32:12;;;;;;;4.47;3.60;;;24.90;79.80;;;;;;5116435;28;20200;-76
2022/08/13 08:34:42;;;;;;;7.20;3.88;;;25.10;79.20;;;;;;5116698;28;20200;-76
2022/08/13 08:42:35;;;;;;;6.43;3.58;;;25.30;80.20;;;;;;5116739;28;20227;-76
2022/08/13 08:42:48;;;;;;;3.75;3.20;;;25.80;76.00;;;;;;5116504;28;20554;-76
2022/08/13 08:45:18;;;;;;;3.47;3.17;;;25.80;74.30;;;;;;5116576;28;20202;-77
2022/08/13 08:47:45;;;;;;;4.47;3.58;;;25.90;72.60;;;;;;5116446;28;20230;-76
2022/08/13 08:50:13;;;;;;;6.65;3.28;;;26.00;71.90;;;;;;5116168;28;20324;-76
2022/08/13 08:55:27;;;;;;;4.82;3.25;;;26.90;67.60;;;;;;5116089;28;20202;-76
2022/08/13 08:57:54;;;;;;;4.38;3.10;;;27.00;64.20;;;;;;5115937;28;20670;-76
2022/08/13 09:00:23;;;;;;;5.28;3.40;;;26.90;62.60;;;;;;5116010;28;20227;-76
2022/08/13 09:02:52;;;;;;;5.43;3.15;;;27.10;62.90;;;;;;5116043;28;20621;-76
2022/08/13 09:05:21;;;;;;;4.60;3.30;;;27.40;62.50;;;;;;5115982;28;20196;-76
2022/08/13 09:07:49;;;;;;;3.67;3.35;;;27.70;59.70;;;;;;5116135;28;20291;-76
2022/08/13 09:10:18;;;;;;;3.35;3.05;;;27.90;58.70;;;;;;5115856;28;20211;-76
2022/08/13 09:12:47;;;;;;;4.32;3.30;;;28.10;57.90;;;;;;5115866;28;20566;-76
2022/08/13 09:15:17;;;;;;;3.85;3.30;;;28.20;57.30;;;;;;5115647;28;20229;-76
2022/08/13 09:17:45;;;;;;;5.20;3.47;;;28.00;56.90;;;;;;5115770;28;20670;-76
2022/08/13 09:20:14;;;;;;;5.05;3.17;;;28.10;54.30;;;;;;5115163;28;20489;-76
2022/08/13 09:22:44;;;;;;;5.05;3.25;;;28.50;53.60;;;;;;5115341;28;20200;-76
2022/08/13 09:25:13;;;;;;;4.88;3.00;;;28.70;51.50;;;;;;5115514;28;20195;-77
2022/08/13 09:27:42;;;;;;;3.92;3.08;;;29.20;50.50;;;;;;5115272;28;20202;-76
2022/08/13 09:30:13;;;;;;;5.15;3.40;;;29.10;49.20;;;;;;5115631;28;20199;-77
2022/08/13 09:32:40;;;;;;;3.47;3.17;;;29.10;48.90;;;;;;5115186;28;20278;-76
2022/08/13 09:35:08;;;;;;;6.43;3.30;;;28.60;48.50;;;;;;5115375;28;20207;-76
2022/08/13 09:37:35;;;;;;;3.38;2.97;;;28.70;48.10;;;;;;5115285;28;20203;-76
2022/08/13 09:40:05;;;;;;;5.47;3.25;;;29.30;46.30;;;;;;5114856;28;20227;-76
2022/08/13 09:42:37;;;;;;;4.18;2.97;;;29.60;45.70;;;;;;5115247;28;20280;-77
2022/08/13 09:45:07;;;;;;;4.70;2.70;;;29.10;46.00;;;;;;5115454;28;20227;-77
2022/08/13 09:47:35;;;;;;;3.55;2.80;;;28.60;45.20;;;;;;5115340;28;20531;-76
2022/08/13 09:50:02;;;;;;;4.85;3.03;;;28.30;45.60;;;;;;5115224;28;20253;-76
2022/08/13 09:52:30;;;;;;;3.05;2.67;;;28.10;45.30;;;;;;5114826;28;20264;-76
2022/08/13 09:54:57;;;;;;;3.15;2.63;;;28.00;44.60;;;;;;5115065;28;20207;-76
2022/08/13 09:57:25;;;;;;;4.72;2.70;;;28.20;43.80;;;;;;5114978;28;20207;-77
2022/08/13 09:59:52;;;;;;;2.85;2.65;;;28.30;43.30;;;;;;5114776;28;20231;-76
2022/08/13 10:02:21;;;;;;;3.40;2.75;;;29.20;42.10;;;;;;5114913;28;20241;-76
2022/08/13 10:04:52;;;;;;;4.55;2.60;;;29.80;41.80;;;;;;5114680;28;20196;-76
2022/08/13 10:07:19;;;;;;;2.72;2.50;;;30.60;41.00;;;;;;5114646;28;20209;-76
2022/08/13 10:09:46;;;;;;;2.38;2.17;;;30.60;37.60;;;;;;5114615;28;20249;-76
2022/08/13 10:12:13;;;;;;;2.15;1.95;;;29.80;34.80;;;;;;5114284;28;20499;-77
2022/08/13 10:14:40;;;;;;;4.80;2.30;;;30.20;34.60;;;;;;5114726;28;20202;-75
2022/08/13 10:17:08;;;;;;;2.50;2.30;;;29.70;35.20;;;;;;5114652;28;20244;-75
2022/08/13 10:19:34;;;;;;;2.40;2.20;;;29.30;36.90;;;;;;5114351;28;20306;-77
2022/08/13 10:22:02;;;;;;;4.88;2.88;;;29.90;36.70;;;;;;5114317;28;20199;-77
2022/08/13 10:24:29;;;;;;;2.30;2.20;;;30.60;36.50;;;;;;5114162;28;20229;-74
2022/08/13 10:26:56;;;;;;;4.78;2.17;;;31.70;33.30;;;;;;5114250;28;20204;-77
2022/08/13 10:29:23;;;;;;;6.65;2.30;;;32.30;31.50;;;;;;5114462;28;20203;-76
2022/08/13 10:31:49;;;;;;;3.50;2.17;;;32.50;31.10;;;;;;5113370;28;20601;-76
2022/08/13 10:34:22;;;;;;;2.33;2.10;;;33.20;30.00;;;;;;5114129;28;20207;-76
2022/08/13 10:36:49;;;;;;;2.67;2.05;;;33.70;29.90;;;;;;5114225;28;20243;-75
2022/08/13 10:39:17;;;;;;;2.53;2.13;;;34.00;28.10;;;;;;5113867;28;20219;-75
2022/08/13 10:41:44;;;;;;;3.45;2.28;;;34.10;28.00;;;;;;5113826;28;20231;-75
2022/08/13 10:44:11;;;;;;;2.55;2.10;;;34.40;26.90;;;;;;5114344;28;20226;-76
2022/08/13 10:46:37;;;;;;;4.43;2.28;;;34.90;25.90;;;;;;5114206;28;20290;-76
2022/08/13 10:49:04;;;;;;;3.30;2.25;;;35.10;24.60;;;;;;5114027;28;20203;-77
2022/08/13 10:51:31;;;;;;;2.20;2.00;;;35.40;24.70;;;;;;5113852;28;20195;-76
2022/08/13 10:53:59;;;;;;;2.70;1.95;;;35.00;24.00;;;;;;5113772;28;20202;-76
2022/08/13 10:56:29;;;;;;;3.25;2.10;;;35.30;22.40;;;;;;5113893;28;20191;-75
2022/08/13 10:58:56;;;;;;;3.17;2.10;;;35.20;21.80;;;;;;5113830;28;20256;-75
2022/08/13 11:01:24;;;;;;;2.22;1.90;;;36.10;21.70;;;;;;5114017;28;20290;-75
2022/08/13 11:03:52;;;;;;;2.10;1.90;;;36.70;21.20;;;;;;5113555;28;20195;-75
2022/08/13 11:06:19;;;;;;;1.90;1.80;;;37.40;20.60;;;;;;5113541;28;20199;-75
2022/08/13 11:08:47;;;;;;;1.98;1.88;;;37.50;19.10;;;;;;5113754;28;20224;-75
2022/08/13 11:11:14;;;;;;;2.33;2.05;;;38.60;18.50;;;;;;5113668;28;20199;-75
2022/08/13 11:13:42;;;;;;;2.40;2.05;;;38.30;17.30;;;;;;5113542;28;20205;-75
2022/08/13 11:16:56;;;;;;;2.63;2.00;;;38.10;17.60;;;;;;5113350;28;20554;-77
2022/08/13 11:18:56;;;;;;;2.63;2.03;;;38.90;17.20;;;;;;5113072;28;20199;-78
2022/08/13 11:21:24;;;;;;;2.63;1.63;;;39.20;16.90;;;;;;5113296;28;20198;-76
2022/08/13 11:23:51;;;;;;;2.33;2.13;;;39.80;16.40;;;;;;5113596;28;20238;-75
2022/08/13 11:26:18;;;;;;;2.33;2.20;;;39.40;16.00;;;;;;5113374;28;20199;-76
2022/08/13 11:28:46;;;;;;;2.17;1.90;;;39.70;15.80;;;;;;5113347;28;20195;-76
2022/08/13 11:31:13;;;;;;;2.08;1.88;;;39.00;15.40;;;;;;5113097;28;20202;-75
2022/08/13 11:33:40;;;;;;;2.10;1.95;;;38.10;16.20;;;;;;5113639;28;20339;-76
2022/08/13 11:36:07;;;;;;;2.95;1.95;;;38.00;15.70;;;;;;5113703;28;20559;-76
2022/08/13 11:38:33;;;;;;;2.08;1.98;;;36.50;16.00;;;;;;5113384;28;20206;-75
2022/08/13 11:41:00;;;;;;;4.25;2.28;;;35.70;16.50;;;;;;5113167;28;20238;-76
2022/08/13 11:43:28;;;;;;;7.68;2.42;;;34.90;17.40;;;;;;5116462;28;20229;-76
2022/08/13 11:45:57;;;;;;;2.58;2.10;;;35.10;18.00;;;;;;5117403;28;20244;-74
2022/08/13 11:48:24;;;;;;;3.40;2.10;;;36.10;17.60;;;;;;5117427;28;20195;-75
2022/08/13 11:50:51;;;;;;;2.22;2.03;;;38.00;16.90;;;;;;5117495;28;20195;-76
2022/08/13 11:53:19;;;;;;;1.95;1.85;;;39.50;15.70;;;;;;5117329;28;20195;-76
2022/08/13 11:55:46;;;;;;;2.13;2.00;;;39.70;15.20;;;;;;5117063;28;20714;-77
2022/08/13 11:58:12;;;;;;;2.72;2.05;;;38.30;15.40;;;;;;5117114;28;20558;-77
2022/08/13 12:00:42;;;;;;;2.33;2.13;;;37.00;15.90;;;;;;5117195;28;20264;-75
2022/08/13 12:03:11;;;;;;;2.30;2.10;;;35.50;16.20;;;;;;5117058;28;20654;-77
2022/08/13 12:05:38;;;;;;;2.00;1.90;;;34.90;16.80;;;;;;5117211;28;20267;-75
2022/08/13 12:08:13;;;;;;;2.97;2.10;;;36.20;16.30;;;;;;5117076;28;20604;-77
2022/08/13 12:10:40;;;;;;;3.20;2.17;;;37.50;15.70;;;;;;5116795;28;20191;-77
2022/08/13 12:13:07;;;;;;;2.88;2.10;;;37.90;15.30;;;;;;5116700;28;20203;-76
2022/08/13 12:15:34;;;;;;;2.75;2.05;;;37.70;15.40;;;;;;5116910;28;20199;-77
2022/08/13 12:18:00;;;;;;;2.25;2.15;;;36.90;16.20;;;;;;5116816;28;20199;-77
2022/08/13 12:20:28;;;;;;;3.22;1.90;;;38.60;15.10;;;;;;5116715;28;20264;-77
2022/08/13 12:22:57;;;;;;;2.22;2.03;;;39.40;14.40;;;;;;5116580;28;20715;-77
2022/08/13 12:25:27;;;;;;;2.13;1.95;;;40.40;14.10;;;;;;5116847;28;20240;-77
2022/08/13 12:28:07;;;;;;;2.60;2.25;;;40.60;13.40;;;;;;5116777;28;20195;-77
2022/08/13 12:30:34;;;;;;;3.75;2.15;;;39.90;13.70;;;;;;5116917;28;20226;-77
2022/08/13 12:33:01;;;;;;;3.13;1.90;;;42.00;12.70;;;;;;5116498;28;20248;-76
2022/08/13 12:35:29;;;;;;;2.00;1.90;;;41.40;11.90;;;;;;5116465;28;20199;-76
2022/08/13 12:37:56;;;;;;;1.77;1.67;;;39.10;12.10;;;;;;5116305;28;20199;-76
2022/08/13 12:40:23;;;;;;;1.90;1.80;;;38.30;12.40;;;;;;5116380;28;20355;-76
2022/08/13 12:42:49;;;;;;;3.35;2.00;;;37.10;13.10;;;;;;5116275;28;20654;-76
2022/08/13 12:45:16;;;;;;;4.38;1.73;;;37.30;13.10;;;;;;5116311;28;20256;-76
2022/08/13 12:47:44;;;;;;;1.80;1.70;;;37.90;13.20;;;;;;5116354;28;20211;-76
2022/08/13 12:50:12;;;;;;;1.92;1.73;;;40.20;12.10;;;;;;5116075;28;20525;-76
2022/08/13 12:52:39;;;;;;;3.22;1.90;;;40.80;11.40;;;;;;5116004;28;20203;-76
2022/08/13 12:55:07;;;;;;;2.10;1.90;;;42.10;11.50;;;;;;5115567;28;20246;-76
2022/08/13 12:57:34;;;;;;;2.10;1.73;;;42.60;10.60;;;;;;5116171;28;20203;-76
2022/08/13 13:00:01;;;;;;;1.85;1.75;;;42.90;9.70;;;;;;5115943;28;20268;-76
2022/08/13 13:02:27;;;;;;;1.80;1.70;;;43.20;8.90;;;;;;5115774;28;20199;-75
2022/08/13 13:04:54;;;;;;;2.92;1.80;;;43.50;8.80;;;;;;5115738;28;20256;-75
2022/08/13 13:07:21;;;;;;;2.13;1.90;;;43.40;8.90;;;;;;5115894;28;20237;-77
2022/08/13 13:09:49;;;;;;;2.20;2.00;;;43.50;9.10;;;;;;5115940;28;20284;-76
2022/08/13 13:12:15;;;;;;;2.38;2.00;;;42.60;8.90;;;;;;5115594;28;20716;-77